sensor_id;sensor_type;location;lat;lon;timestamp;P1;durP1;ratioP1;P2;durP2;ratioP2
61739;SDS011;47645;45.288;12.038;2023-04-24T00:03:14;13.6;;;7.7;;
61739;SDS011;47645;45.288;12.038;2023-04-24T00:13:15;15.5;;;8.7;;
61739;SDS011;47645;45.288;12.038;2023-04-24T00:23:16;8.0;;;5.3;;
61739;SDS011;47645;45.288;12.038;2023-04-24T00:33:17;9.7;;;5.6;;
61739;SDS011;47645;45.288;12.038;2023-04-24T00:43:18;12.1;;;6.9;;
61739;SDS011;47645;45.288;12.038;2023-04-24T00:53:19;14.9;;;8.0;;
61739;SDS011;47645;45.288;12.038;2023-04-24T01:03:20;14.2;;;7.4;;
61739;SDS011;47645;45.288;12.038;2023-04-24T01:13:21;13.5;;;7.4;;
61739;SDS011;47645;45.288;12.038;2023-04-24T01:28:23;14.9;;;11.4;;
61739;SDS011;47645;45.288;12.038;2023-04-24T01:33:23;17.3;;;11.7;;
61739;SDS011;47645;45.288;12.038;2023-04-24T01:43:24;19.0;;;11.6;;
61739;SDS011;47645;45.288;12.038;2023-04-24T01:53:25;19.9;;;12.0;;
61739;SDS011;47645;45.288;12.038;2023-04-24T02:03:26;17.2;;;11.6;;
61739;SDS011;47645;45.288;12.038;2023-04-24T02:13:27;14.1;;;10.6;;
61739;SDS011;47645;45.288;12.038;2023-04-24T02:23:28;16.7;;;11.4;;
61739;SDS011;47645;45.288;12.038;2023-04-24T02:33:29;14.4;;;9.7;;
61739;SDS011;47645;45.288;12.038;2023-04-24T02:43:30;14.2;;;10.4;;
61739;SDS011;47645;45.288;12.038;2023-04-24T02:53:31;13.8;;;9.8;;
61739;SDS011;47645;45.288;12.038;2023-04-24T03:03:32;15.5;;;10.6;;
61739;SDS011;47645;45.288;12.038;2023-04-24T03:13:33;14.9;;;8.9;;
61739;SDS011;47645;45.288;12.038;2023-04-24T03:23:34;15.0;;;9.6;;
61739;SDS011;47645;45.288;12.038;2023-04-24T03:33:36;15.1;;;10.4;;
61739;SDS011;47645;45.288;12.038;2023-04-24T03:43:36;16.4;;;10.4;;
61739;SDS011;47645;45.288;12.038;2023-04-24T03:53:37;14.0;;;10.1;;
61739;SDS011;47645;45.288;12.038;2023-04-24T04:03:38;18.1;;;11.9;;
61739;SDS011;47645;45.288;12.038;2023-04-24T04:13:39;17.1;;;12.4;;
61739;SDS011;47645;45.288;12.038;2023-04-24T04:23:40;18.8;;;12.2;;
61739;SDS011;47645;45.288;12.038;2023-04-24T04:33:41;16.3;;;12.4;;
61739;SDS011;47645;45.288;12.038;2023-04-24T04:43:42;18.0;;;13.7;;
61739;SDS011;47645;45.288;12.038;2023-04-24T04:53:42;13.1;;;9.6;;
61739;SDS011;47645;45.288;12.038;2023-04-24T05:03:43;13.8;;;8.8;;
61739;SDS011;47645;45.288;12.038;2023-04-24T05:13:44;12.2;;;9.2;;
61739;SDS011;47645;45.288;12.038;2023-04-24T05:23:45;19.7;;;11.6;;
61739;SDS011;47645;45.288;12.038;2023-04-24T05:33:46;15.3;;;10.4;;
61739;SDS011;47645;45.288;12.038;2023-04-24T05:43:47;17.4;;;12.6;;
61739;SDS011;47645;45.288;12.038;2023-04-24T05:53:48;12.2;;;8.7;;
61739;SDS011;47645;45.288;12.038;2023-04-24T06:03:49;17.4;;;11.3;;
61739;SDS011;47645;45.288;12.038;2023-04-24T06:13:50;15.7;;;8.9;;
61739;SDS011;47645;45.288;12.038;2023-04-24T06:23:50;12.1;;;8.5;;
61739;SDS011;47645;45.288;12.038;2023-04-24T06:33:51;12.5;;;7.9;;
61739;SDS011;47645;45.288;12.038;2023-04-24T06:43:52;11.5;;;7.9;;
61739;SDS011;47645;45.288;12.038;2023-04-24T06:53:53;12.2;;;7.1;;
61739;SDS011;47645;45.288;12.038;2023-04-24T07:03:54;10.4;;;6.3;;
61739;SDS011;47645;45.288;12.038;2023-04-24T07:13:55;11.4;;;7.2;;
61739;SDS011;47645;45.288;12.038;2023-04-24T07:23:56;9.7;;;6.4;;
61739;SDS011;47645;45.288;12.038;2023-04-24T07:33:58;7.4;;;4.4;;
61739;SDS011;47645;45.288;12.038;2023-04-24T07:43:58;5.7;;;4.2;;
61739;SDS011;47645;45.288;12.038;2023-04-24T07:53:59;7.2;;;5.9;;
61739;SDS011;47645;45.288;12.038;2023-04-24T08:04:00;5.8;;;4.1;;
61739;SDS011;47645;45.288;12.038;2023-04-24T08:14:00;3.8;;;3.1;;
61739;SDS011;47645;45.288;12.038;2023-04-24T08:24:05;4.5;;;2.1;;
61739;SDS011;47645;45.288;12.038;2023-04-24T08:34:02;2.9;;;1.6;;
61739;SDS011;47645;45.288;12.038;2023-04-24T08:44:04;3.1;;;1.5;;
61739;SDS011;47645;45.288;12.038;2023-04-24T08:54:04;1.8;;;1.3;;
61739;SDS011;47645;45.288;12.038;2023-04-24T09:04:06;3.4;;;1.7;;
61739;SDS011;47645;45.288;12.038;2023-04-24T09:14:06;2.7;;;1.4;;
61739;SDS011;47645;45.288;12.038;2023-04-24T09:24:14;3.8;;;1.6;;
61739;SDS011;47645;45.288;12.038;2023-04-24T09:34:08;4.9;;;1.7;;
61739;SDS011;47645;45.288;12.038;2023-04-24T09:44:11;3.6;;;1.7;;
61739;SDS011;47645;45.288;12.038;2023-04-24T09:54:13;3.2;;;1.8;;
61739;SDS011;47645;45.288;12.038;2023-04-24T10:04:15;2.9;;;1.6;;
61739;SDS011;47645;45.288;12.038;2023-04-24T10:14:13;2.2;;;1.4;;
61739;SDS011;47645;45.288;12.038;2023-04-24T10:24:13;2.8;;;1.4;;
61739;SDS011;47645;45.288;12.038;2023-04-24T10:34:15;2.4;;;1.3;;
61739;SDS011;47645;45.288;12.038;2023-04-24T10:44:16;2.2;;;1.3;;
61739;SDS011;47645;45.288;12.038;2023-04-24T10:54:24;2.6;;;1.5;;
61739;SDS011;47645;45.288;12.038;2023-04-24T11:04:21;2.3;;;1.3;;
61739;SDS011;47645;45.288;12.038;2023-04-24T11:14:18;1.3;;;1.0;;
61739;SDS011;47645;45.288;12.038;2023-04-24T11:24:22;2.0;;;1.1;;
61739;SDS011;47645;45.288;12.038;2023-04-24T11:34:21;2.1;;;1.3;;
61739;SDS011;47645;45.288;12.038;2023-04-24T11:44:22;2.5;;;1.3;;
61739;SDS011;47645;45.288;12.038;2023-04-24T11:54:23;3.1;;;1.6;;
61739;SDS011;47645;45.288;12.038;2023-04-24T12:04:24;3.1;;;1.2;;
61739;SDS011;47645;45.288;12.038;2023-04-24T12:14:25;1.5;;;1.0;;
61739;SDS011;47645;45.288;12.038;2023-04-24T12:24:26;1.1;;;0.6;;
61739;SDS011;47645;45.288;12.038;2023-04-24T12:34:27;1.2;;;0.4;;
61739;SDS011;47645;45.288;12.038;2023-04-24T12:44:30;1.2;;;0.4;;
61739;SDS011;47645;45.288;12.038;2023-04-24T12:54:32;1.7;;;0.4;;
61739;SDS011;47645;45.288;12.038;2023-04-24T13:04:31;0.8;;;0.4;;
61739;SDS011;47645;45.288;12.038;2023-04-24T13:14:32;0.8;;;0.3;;
61739;SDS011;47645;45.288;12.038;2023-04-24T13:24:33;1.1;;;0.3;;
61739;SDS011;47645;45.288;12.038;2023-04-24T13:34:35;1.0;;;0.4;;
61739;SDS011;47645;45.288;12.038;2023-04-24T13:44:36;0.9;;;0.4;;
61739;SDS011;47645;45.288;12.038;2023-04-24T13:54:37;1.7;;;0.5;;
61739;SDS011;47645;45.288;12.038;2023-04-24T14:04:38;1.1;;;0.3;;
61739;SDS011;47645;45.288;12.038;2023-04-24T14:14:40;1.1;;;0.3;;
61739;SDS011;47645;45.288;12.038;2023-04-24T14:24:41;0.7;;;0.2;;
61739;SDS011;47645;45.288;12.038;2023-04-24T14:34:43;1.4;;;0.4;;
61739;SDS011;47645;45.288;12.038;2023-04-24T14:44:44;0.7;;;0.3;;
61739;SDS011;47645;45.288;12.038;2023-04-24T14:54:45;0.7;;;0.2;;
61739;SDS011;47645;45.288;12.038;2023-04-24T15:04:46;1.0;;;0.5;;
61739;SDS011;47645;45.288;12.038;2023-04-24T15:14:48;0.8;;;0.2;;
61739;SDS011;47645;45.288;12.038;2023-04-24T15:24:49;0.8;;;0.2;;
61739;SDS011;47645;45.288;12.038;2023-04-24T15:34:50;0.9;;;0.2;;
61739;SDS011;47645;45.288;12.038;2023-04-24T15:44:52;0.7;;;0.2;;
61739;SDS011;47645;45.288;12.038;2023-04-24T15:54:53;0.9;;;0.4;;
61739;SDS011;47645;45.288;12.038;2023-04-24T16:04:54;1.2;;;0.2;;
61739;SDS011;47645;45.288;12.038;2023-04-24T16:14:56;1.6;;;0.4;;
61739;SDS011;47645;45.288;12.038;2023-04-24T16:24:58;1.1;;;0.4;;
61739;SDS011;47645;45.288;12.038;2023-04-24T16:34:58;1.4;;;0.4;;
61739;SDS011;47645;45.288;12.038;2023-04-24T16:44:59;2.2;;;0.7;;
61739;SDS011;47645;45.288;12.038;2023-04-24T16:55:01;1.6;;;0.4;;
61739;SDS011;47645;45.288;12.038;2023-04-24T17:05:02;1.0;;;0.5;;
61739;SDS011;47645;45.288;12.038;2023-04-24T17:15:04;4.6;;;2.2;;
61739;SDS011;47645;45.288;12.038;2023-04-24T17:20:05;5.1;;;0.7;;
61739;SDS011;47645;45.288;12.038;2023-04-24T17:30:05;1.5;;;0.5;;
61739;SDS011;47645;45.288;12.038;2023-04-24T17:40:07;1.8;;;0.6;;
61739;SDS011;47645;45.288;12.038;2023-04-24T17:50:07;3.0;;;0.9;;
61739;SDS011;47645;45.288;12.038;2023-04-24T18:00:09;1.5;;;0.5;;
61739;SDS011;47645;45.288;12.038;2023-04-24T18:10:09;2.9;;;1.4;;
61739;SDS011;47645;45.288;12.038;2023-04-24T18:20:11;3.1;;;0.9;;
61739;SDS011;47645;45.288;12.038;2023-04-24T18:30:11;1.8;;;0.6;;
61739;SDS011;47645;45.288;12.038;2023-04-24T18:40:13;3.2;;;1.1;;
61739;SDS011;47645;45.288;12.038;2023-04-24T18:50:14;1.8;;;0.6;;
61739;SDS011;47645;45.288;12.038;2023-04-24T19:00:15;1.3;;;0.6;;
61739;SDS011;47645;45.288;12.038;2023-04-24T19:10:15;0.9;;;0.4;;
61739;SDS011;47645;45.288;12.038;2023-04-24T19:20:17;2.4;;;0.9;;
61739;SDS011;47645;45.288;12.038;2023-04-24T19:30:18;1.8;;;0.5;;
61739;SDS011;47645;45.288;12.038;2023-04-24T19:40:19;2.3;;;0.7;;
61739;SDS011;47645;45.288;12.038;2023-04-24T19:50:20;2.2;;;0.6;;
61739;SDS011;47645;45.288;12.038;2023-04-24T20:00:21;3.1;;;0.9;;
61739;SDS011;47645;45.288;12.038;2023-04-24T20:10:21;2.3;;;1.3;;
61739;SDS011;47645;45.288;12.038;2023-04-24T20:20:22;1.4;;;0.9;;
61739;SDS011;47645;45.288;12.038;2023-04-24T20:30:24;2.6;;;1.0;;
61739;SDS011;47645;45.288;12.038;2023-04-24T20:40:24;1.8;;;0.9;;
61739;SDS011;47645;45.288;12.038;2023-04-24T20:50:25;1.5;;;0.7;;
61739;SDS011;47645;45.288;12.038;2023-04-24T21:00:26;1.8;;;1.2;;
61739;SDS011;47645;45.288;12.038;2023-04-24T21:10:27;3.2;;;1.6;;
61739;SDS011;47645;45.288;12.038;2023-04-24T21:20:28;7.1;;;2.4;;
61739;SDS011;47645;45.288;12.038;2023-04-24T21:30:29;7.6;;;3.6;;
61739;SDS011;47645;45.288;12.038;2023-04-24T21:40:30;6.1;;;3.5;;
61739;SDS011;47645;45.288;12.038;2023-04-24T21:50:31;3.8;;;2.0;;
61739;SDS011;47645;45.288;12.038;2023-04-24T22:00:32;2.9;;;1.6;;
61739;SDS011;47645;45.288;12.038;2023-04-24T22:10:32;3.5;;;1.8;;
61739;SDS011;47645;45.288;12.038;2023-04-24T22:20:33;3.1;;;2.3;;
61739;SDS011;47645;45.288;12.038;2023-04-24T22:30:34;3.5;;;1.5;;
61739;SDS011;47645;45.288;12.038;2023-04-24T22:40:35;4.0;;;2.1;;
61739;SDS011;47645;45.288;12.038;2023-04-24T22:50:36;2.2;;;1.3;;
61739;SDS011;47645;45.288;12.038;2023-04-24T23:00:37;2.8;;;1.5;;
61739;SDS011;47645;45.288;12.038;2023-04-24T23:10:37;3.3;;;2.1;;
61739;SDS011;47645;45.288;12.038;2023-04-24T23:20:38;5.2;;;2.7;;
61739;SDS011;47645;45.288;12.038;2023-04-24T23:30:39;3.9;;;1.7;;
61739;SDS011;47645;45.288;12.038;2023-04-24T23:40:40;2.9;;;1.5;;
61739;SDS011;47645;45.288;12.038;2023-04-24T23:50:41;4.2;;;1.6;;
